createdAt,value
2018-05-16T00:02:25.893Z,9.00
2018-05-16T00:05:32.070Z,9.00
2018-05-16T00:08:38.099Z,9.00
2018-05-16T00:11:44.360Z,9.10
2018-05-16T00:14:50.351Z,9.10
2018-05-16T00:17:56.392Z,9.10
2018-05-16T00:21:02.445Z,9.10
2018-05-16T00:24:08.477Z,9.20
2018-05-16T00:27:14.544Z,9.20
2018-05-16T00:30:20.671Z,9.20
2018-05-16T00:33:25.956Z,9.20
2018-05-16T00:36:32.125Z,9.20
2018-05-16T00:39:38.017Z,9.20
2018-05-16T00:42:44.189Z,9.30
2018-05-16T00:45:50.007Z,9.20
2018-05-16T00:48:57.031Z,9.30
2018-05-16T00:52:03.172Z,9.30
2018-05-16T00:55:09.327Z,9.40
2018-05-16T00:58:15.379Z,9.30
2018-05-16T01:01:21.279Z,9.40
2018-05-16T01:04:28.180Z,9.40
2018-05-16T01:07:34.265Z,9.40
2018-05-16T01:10:40.230Z,9.40
2018-05-16T01:13:46.419Z,9.40
2018-05-16T01:16:52.516Z,9.40
2018-05-16T01:19:58.701Z,9.50
2018-05-16T01:23:04.729Z,9.50
2018-05-16T01:26:12.541Z,9.50
2018-05-16T01:29:18.656Z,9.50
2018-05-16T01:32:24.562Z,9.50
2018-05-16T01:35:30.555Z,9.50
2018-05-16T01:38:36.446Z,9.50
2018-05-16T01:41:42.645Z,9.50
2018-05-16T01:44:48.455Z,9.50
2018-05-16T01:47:54.472Z,9.50
2018-05-16T01:51:00.540Z,9.50
2018-05-16T01:54:06.554Z,9.50
2018-05-16T01:57:12.814Z,9.50
2018-05-16T02:00:18.879Z,9.50
2018-05-16T02:03:24.703Z,9.50
2018-05-16T02:06:30.859Z,9.50
2018-05-16T02:09:36.956Z,9.40
2018-05-16T02:12:43.254Z,9.40
2018-05-16T02:15:49.186Z,9.40
2018-05-16T02:18:55.215Z,9.40
2018-05-16T02:22:01.098Z,9.40
2018-05-16T02:25:07.157Z,9.40
2018-05-16T02:28:13.603Z,9.40
2018-05-16T02:31:19.038Z,9.30
2018-05-16T02:34:25.254Z,9.30
2018-05-16T02:37:31.408Z,9.30
2018-05-16T02:40:37.343Z,9.30
2018-05-16T02:43:43.292Z,9.30
2018-05-16T02:46:49.414Z,9.30
2018-05-16T02:49:55.652Z,9.30
2018-05-16T02:53:01.653Z,9.30
2018-05-16T02:56:07.660Z,9.30
2018-05-16T02:59:13.657Z,9.30
2018-05-16T03:02:19.699Z,9.30
2018-05-16T03:05:25.689Z,9.30
2018-05-16T03:08:31.857Z,9.30
2018-05-16T03:11:37.861Z,9.30
2018-05-16T03:14:44.148Z,9.30
2018-05-16T03:17:50.088Z,9.30
2018-05-16T03:20:56.264Z,9.30
2018-05-16T03:24:02.353Z,9.30
2018-05-16T03:27:08.428Z,9.30
2018-05-16T03:30:14.700Z,9.20
2018-05-16T03:33:21.630Z,9.10
2018-05-16T03:36:27.567Z,9.10
2018-05-16T03:39:33.800Z,9.10
2018-05-16T03:42:40.095Z,9.10
2018-05-16T03:45:45.633Z,9.10
2018-05-16T03:48:51.857Z,9.10
2018-05-16T03:51:57.958Z,9.00
2018-05-16T03:55:05.048Z,9.00
2018-05-16T03:58:38.499Z,9.00
2018-05-16T04:01:56.702Z,9.10
2018-05-16T04:05:03.008Z,9.00
2018-05-16T04:08:09.024Z,9.00
2018-05-16T04:11:14.864Z,9.10
2018-05-16T04:14:21.136Z,9.10
2018-05-16T04:17:27.328Z,9.10
2018-05-16T04:20:33.287Z,9.20
2018-05-16T04:23:46.016Z,9.10
2018-05-16T04:26:52.059Z,9.20
2018-05-16T04:29:57.988Z,9.10
2018-05-16T04:33:04.141Z,9.10
2018-05-16T04:36:10.186Z,9.20
2018-05-16T04:39:16.195Z,9.20
2018-05-16T04:42:22.334Z,9.10
2018-05-16T04:45:28.358Z,9.10
2018-05-16T04:48:34.469Z,9.10
2018-05-16T04:51:40.383Z,9.00
2018-05-16T04:54:46.380Z,9.10
2018-05-16T04:57:52.468Z,9.10
2018-05-16T05:00:58.230Z,9.10
2018-05-16T05:04:04.371Z,9.10
2018-05-16T05:07:10.427Z,9.00
2018-05-16T05:10:16.454Z,9.10
2018-05-16T05:13:22.344Z,9.10
2018-05-16T05:16:28.494Z,9.10
2018-05-16T05:19:34.608Z,9.10
2018-05-16T05:22:40.686Z,9.10
2018-05-16T05:25:46.830Z,9.20
2018-05-16T05:28:52.996Z,9.20
2018-05-16T05:32:00.257Z,9.20
2018-05-16T05:35:06.260Z,9.20
2018-05-16T05:38:12.206Z,9.20
2018-05-16T05:41:18.336Z,9.20
2018-05-16T05:44:24.547Z,9.30
2018-05-16T05:47:30.930Z,9.20
2018-05-16T05:50:37.025Z,9.30
2018-05-16T05:53:42.959Z,9.30
2018-05-16T05:56:49.031Z,9.30
2018-05-16T05:59:56.122Z,9.30
2018-05-16T06:03:01.961Z,9.20
2018-05-16T06:06:07.738Z,9.30
2018-05-16T06:09:13.487Z,9.30
2018-05-16T06:12:19.847Z,9.30
2018-05-16T06:15:25.812Z,9.30
2018-05-16T06:18:31.775Z,9.40
2018-05-16T06:21:37.979Z,9.40
2018-05-16T06:24:44.012Z,9.50
2018-05-16T06:27:49.976Z,9.50
2018-05-16T06:30:56.000Z,9.50
2018-05-16T06:34:01.991Z,9.60
2018-05-16T06:37:07.732Z,9.60
2018-05-16T06:40:14.038Z,9.60
2018-05-16T06:43:20.270Z,9.50
2018-05-16T06:46:26.755Z,9.50
2018-05-16T06:49:32.790Z,9.70
2018-05-16T06:52:38.594Z,10.00
2018-05-16T06:55:44.745Z,10.30
2018-05-16T06:58:52.451Z,10.40
2018-05-16T07:01:58.684Z,10.60
2018-05-16T07:05:04.466Z,10.60
2018-05-16T07:08:11.584Z,10.70
2018-05-16T07:11:17.615Z,10.60
2018-05-16T07:14:23.641Z,10.70
2018-05-16T07:17:29.717Z,10.70
2018-05-16T07:20:35.760Z,10.60
2018-05-16T07:23:41.760Z,10.60
2018-05-16T07:26:47.861Z,10.60
2018-05-16T07:29:53.908Z,10.50
2018-05-16T07:32:59.953Z,10.50
2018-05-16T07:36:05.926Z,10.50
2018-05-16T07:39:11.994Z,10.50
2018-05-16T07:42:18.033Z,10.50
2018-05-16T07:45:23.887Z,10.50
2018-05-16T07:48:29.934Z,10.50
2018-05-16T07:51:36.176Z,10.40
2018-05-16T07:54:43.389Z,10.40
2018-05-16T07:57:49.448Z,10.80
2018-05-16T08:00:55.609Z,10.80
2018-05-16T08:04:02.610Z,11.00
2018-05-16T08:07:08.800Z,11.30
2018-05-16T08:10:15.010Z,11.60
2018-05-16T08:13:21.123Z,11.90
2018-05-16T08:16:27.312Z,12.20
2018-05-16T08:19:33.414Z,12.30
2018-05-16T08:22:39.277Z,12.80
2018-05-16T08:25:45.444Z,13.30
2018-05-16T08:28:51.926Z,13.70
2018-05-16T08:31:58.735Z,13.70
2018-05-16T08:35:04.546Z,13.80
2018-05-16T08:38:10.843Z,13.80
2018-05-16T08:41:16.891Z,14.10
2018-05-16T08:44:22.960Z,14.30
2018-05-16T08:47:29.724Z,14.30
2018-05-16T08:50:35.845Z,14.20
2018-05-16T08:53:41.809Z,14.10
2018-05-16T08:56:48.494Z,14.20
2018-05-16T08:59:55.410Z,13.80
2018-05-16T09:03:01.579Z,13.40
2018-05-16T09:06:07.770Z,13.10
2018-05-16T09:09:13.853Z,13.10
2018-05-16T09:12:19.874Z,13.10
2018-05-16T09:15:26.186Z,13.40
2018-05-16T09:18:32.167Z,13.80
2018-05-16T09:21:38.327Z,13.90
2018-05-16T09:24:45.359Z,13.30
2018-05-16T09:27:51.419Z,13.30
2018-05-16T09:30:57.213Z,13.00
2018-05-16T09:34:04.366Z,12.80
2018-05-16T09:37:10.432Z,12.70
2018-05-16T09:40:16.475Z,12.60
2018-05-16T09:43:22.323Z,12.10
2018-05-16T09:46:29.350Z,12.10
2018-05-16T09:49:35.465Z,11.70
2018-05-16T09:52:44.331Z,11.70
2018-05-16T09:55:50.279Z,11.60
2018-05-16T09:58:56.455Z,11.50
2018-05-16T10:02:01.796Z,11.50
2018-05-16T10:05:15.810Z,11.30
2018-05-16T10:08:21.769Z,11.30
2018-05-16T10:11:27.791Z,11.30
2018-05-16T10:14:33.989Z,11.20
2018-05-16T10:17:40.174Z,11.20
2018-05-16T10:20:46.331Z,11.10
2018-05-16T10:23:52.457Z,11.00
2018-05-16T10:26:58.446Z,11.00
2018-05-16T10:30:05.353Z,10.90
2018-05-16T10:33:12.335Z,11.00
2018-05-16T10:36:18.164Z,11.30
2018-05-16T10:39:24.517Z,11.80
2018-05-16T10:42:31.469Z,11.80
2018-05-16T10:45:38.929Z,12.00
2018-05-16T10:48:45.462Z,11.90
2018-05-16T10:51:52.189Z,11.80
2018-05-16T10:54:58.513Z,11.90
2018-05-16T10:58:04.858Z,11.90
2018-05-16T11:01:12.928Z,11.70
2018-05-16T11:04:18.928Z,11.60
2018-05-16T11:07:24.733Z,11.60
2018-05-16T11:10:30.612Z,11.50
2018-05-16T11:13:36.520Z,11.60
2018-05-16T11:16:42.525Z,11.60
2018-05-16T11:19:49.312Z,11.70
2018-05-16T11:22:55.565Z,11.70
2018-05-16T11:26:02.954Z,11.80
2018-05-16T11:29:08.977Z,11.80
2018-05-16T11:32:14.350Z,12.00
2018-05-16T11:35:20.606Z,12.00
2018-05-16T11:38:27.627Z,12.30
2018-05-16T11:41:33.760Z,12.20
2018-05-16T11:44:39.893Z,12.20
2018-05-16T11:47:45.888Z,12.30
2018-05-16T11:50:52.278Z,12.40
2018-05-16T11:53:58.361Z,12.30
2018-05-16T11:57:06.478Z,12.10
2018-05-16T12:00:12.433Z,12.10
2018-05-16T12:03:18.597Z,12.10
2018-05-16T12:06:24.374Z,12.10
2018-05-16T12:09:30.512Z,12.10
2018-05-16T12:12:37.642Z,11.90
2018-05-16T12:15:43.975Z,11.70
2018-05-16T12:18:50.406Z,11.70
2018-05-16T12:21:58.333Z,11.70
2018-05-16T12:25:06.459Z,11.60
2018-05-16T12:28:25.451Z,11.70
2018-05-16T12:31:31.453Z,11.80
2018-05-16T12:34:37.772Z,12.20
2018-05-16T12:37:45.099Z,12.10
2018-05-16T12:40:51.932Z,12.30
2018-05-16T12:43:57.510Z,12.30
2018-05-16T12:47:03.961Z,12.80
2018-05-16T12:50:10.029Z,12.80
2018-05-16T12:53:16.119Z,13.00
2018-05-16T12:56:23.206Z,13.30
2018-05-16T12:59:29.384Z,13.70
2018-05-16T13:02:35.755Z,13.70
2018-05-16T13:05:41.658Z,13.90
2018-05-16T13:08:47.605Z,13.70
2018-05-16T13:11:53.642Z,13.50
2018-05-16T13:14:59.640Z,13.50
2018-05-16T13:18:07.061Z,13.50
2018-05-16T13:21:13.235Z,13.20
2018-05-16T13:24:19.364Z,13.20
2018-05-16T13:27:25.526Z,12.90
2018-05-16T13:30:31.883Z,13.00
2018-05-16T13:33:37.771Z,13.00
2018-05-16T13:36:44.002Z,13.40
2018-05-16T13:39:50.129Z,13.50
2018-05-16T13:42:56.148Z,13.50
2018-05-16T13:46:02.933Z,13.50
2018-05-16T13:49:09.083Z,13.20
2018-05-16T13:52:15.037Z,13.20
2018-05-16T13:55:21.222Z,13.20
2018-05-16T13:58:27.216Z,13.30
2018-05-16T14:01:32.423Z,13.40
2018-05-16T14:04:38.258Z,13.70
2018-05-16T14:07:44.369Z,13.30
2018-05-16T14:10:50.612Z,13.30
2018-05-16T14:13:56.920Z,13.00
2018-05-16T14:17:03.235Z,13.00
2018-05-16T14:20:09.480Z,12.80
2018-05-16T14:23:16.628Z,12.50
2018-05-16T14:26:22.865Z,12.20
2018-05-16T14:29:29.036Z,12.20
2018-05-16T14:32:35.109Z,12.00
2018-05-16T14:35:41.353Z,11.70
2018-05-16T14:38:47.414Z,11.60
2018-05-16T14:41:54.669Z,11.50
2018-05-16T14:45:00.621Z,11.50
2018-05-16T14:48:07.025Z,11.50
2018-05-16T14:51:13.218Z,11.50
2018-05-16T14:54:19.461Z,11.90
2018-05-16T14:57:26.876Z,12.00
2018-05-16T15:00:33.684Z,12.10
2018-05-16T15:03:39.958Z,12.10
2018-05-16T15:06:46.275Z,12.00
2018-05-16T15:09:53.758Z,12.40
2018-05-16T15:12:59.790Z,12.40
2018-05-16T15:16:07.261Z,13.50
2018-05-16T15:19:13.297Z,13.80
2018-05-16T15:22:19.450Z,13.70
2018-05-16T15:29:06.221Z,13.40
2018-05-16T15:32:13.706Z,13.00
2018-05-16T15:35:21.043Z,13.00
2018-05-16T15:38:27.195Z,12.50
2018-05-16T15:41:36.065Z,12.50
2018-05-16T15:44:43.555Z,12.20
2018-05-16T15:47:50.301Z,12.20
2018-05-16T15:50:56.570Z,12.00
2018-05-16T15:54:02.557Z,11.80
2018-05-16T15:57:08.579Z,11.90
2018-05-16T16:00:14.724Z,11.90
2018-05-16T16:03:21.800Z,12.00
2018-05-16T16:06:28.667Z,12.00
2018-05-16T16:09:34.956Z,12.00
2018-05-16T16:12:41.047Z,12.00
2018-05-16T16:15:47.205Z,12.00
2018-05-16T16:18:53.242Z,12.00
2018-05-16T16:21:58.388Z,12.00
2018-05-16T16:25:04.628Z,12.00
2018-05-16T16:28:10.700Z,11.90
2018-05-16T16:31:16.822Z,11.60
2018-05-16T16:34:23.009Z,11.30
2018-05-16T16:37:29.198Z,11.30
2018-05-16T16:40:35.328Z,11.30
2018-05-16T16:43:41.350Z,11.20
2018-05-16T16:46:47.433Z,11.20
2018-05-16T16:49:54.297Z,11.10
2018-05-16T16:53:02.228Z,11.10
2018-05-16T16:56:08.498Z,11.10
2018-05-16T16:59:14.710Z,11.20
2018-05-16T17:02:20.946Z,11.20
2018-05-16T17:05:26.946Z,11.20
2018-05-16T17:08:33.042Z,11.20
2018-05-16T17:11:39.006Z,11.20
2018-05-16T17:14:45.093Z,11.10
2018-05-16T17:17:51.265Z,11.10
2018-05-16T17:20:57.319Z,11.00
2018-05-16T17:24:03.188Z,11.00
2018-05-16T17:27:09.293Z,10.90
2018-05-16T17:30:15.408Z,10.90
2018-05-16T17:33:21.759Z,10.70
2018-05-16T17:36:27.702Z,10.70
2018-05-16T17:39:33.628Z,10.60
2018-05-16T17:42:40.553Z,10.60
2018-05-16T17:45:47.068Z,10.60
2018-05-16T17:48:52.903Z,10.60
2018-05-16T17:51:59.078Z,10.60
2018-05-16T17:55:05.052Z,10.60
2018-05-16T17:58:12.172Z,10.60
2018-05-16T18:01:18.160Z,10.60
2018-05-16T18:04:24.342Z,10.60
2018-05-16T18:07:30.324Z,10.60
2018-05-16T18:10:36.668Z,10.60
2018-05-16T18:17:40.814Z,10.50
2018-05-16T18:20:47.957Z,10.50
2018-05-16T18:23:54.287Z,10.50
2018-05-16T18:27:00.475Z,10.50
2018-05-16T18:30:07.665Z,10.50
2018-05-16T18:33:13.757Z,10.50
2018-05-16T18:36:19.897Z,10.50
2018-05-16T18:39:25.997Z,10.50
2018-05-16T18:42:32.893Z,10.40
2018-05-16T18:45:38.833Z,10.40
2018-05-16T18:48:44.000Z,10.40
2018-05-16T18:51:49.992Z,10.30
2018-05-16T18:54:55.896Z,10.30
2018-05-16T18:58:01.913Z,10.20
2018-05-16T19:01:07.892Z,10.20
2018-05-16T19:04:15.125Z,10.20
2018-05-16T19:07:21.398Z,10.20
2018-05-16T19:10:27.390Z,10.20
2018-05-16T19:13:33.193Z,10.20
2018-05-16T19:16:39.347Z,10.20
2018-05-16T19:19:45.371Z,10.20
2018-05-16T19:22:52.377Z,10.20
2018-05-16T19:25:58.324Z,10.20
2018-05-16T19:29:03.505Z,10.20
2018-05-16T19:32:09.688Z,10.20
2018-05-16T19:35:15.705Z,10.20
2018-05-16T19:38:21.954Z,10.20
2018-05-16T19:41:28.193Z,10.20
2018-05-16T19:44:33.811Z,10.20
2018-05-16T19:47:39.832Z,10.20
2018-05-16T19:50:45.701Z,10.10
2018-05-16T19:53:51.531Z,10.10
2018-05-16T19:56:57.462Z,10.10
2018-05-16T20:00:03.440Z,10.10
2018-05-16T20:03:09.515Z,10.10
2018-05-16T20:06:16.458Z,10.10
2018-05-16T20:09:22.413Z,10.00
2018-05-16T20:12:28.406Z,10.00
2018-05-16T20:15:35.660Z,10.00
2018-05-16T20:18:42.421Z,10.00
2018-05-16T20:21:49.412Z,9.90
2018-05-16T20:24:56.567Z,9.90
2018-05-16T20:31:37.268Z,9.90
2018-05-16T20:34:42.530Z,9.90
2018-05-16T20:37:49.682Z,9.90
2018-05-16T20:40:55.661Z,9.90
2018-05-16T20:44:01.977Z,9.90
2018-05-16T20:47:09.377Z,9.90
2018-05-16T20:50:16.983Z,9.90
2018-05-16T20:53:23.865Z,9.90
2018-05-16T20:56:30.369Z,9.90
2018-05-16T20:59:37.240Z,9.80
2018-05-16T21:02:44.467Z,9.90
2018-05-16T21:05:50.565Z,9.90
2018-05-16T21:08:56.538Z,9.90
2018-05-16T21:12:02.494Z,9.90
2018-05-16T21:15:08.665Z,9.90
2018-05-16T21:18:15.681Z,9.90
2018-05-16T21:21:22.815Z,9.90
2018-05-16T21:24:28.802Z,9.90
2018-05-16T21:27:36.304Z,9.80
2018-05-16T21:30:43.974Z,9.90
2018-05-16T21:33:50.129Z,9.90
2018-05-16T21:36:56.287Z,9.90
2018-05-16T21:40:02.318Z,9.90
2018-05-16T21:43:08.344Z,9.90
2018-05-16T21:46:14.473Z,9.90
2018-05-16T21:49:20.806Z,9.80
2018-05-16T21:52:26.619Z,9.90
2018-05-16T21:55:32.147Z,9.80
2018-05-16T21:58:38.963Z,9.80
2018-05-16T22:01:45.063Z,9.80
2018-05-16T22:04:51.362Z,9.80
2018-05-16T22:07:56.697Z,9.80
2018-05-16T22:11:02.765Z,9.80
2018-05-16T22:14:08.930Z,9.80
2018-05-16T22:17:14.939Z,9.80
2018-05-16T22:20:21.071Z,9.80
2018-05-16T22:23:26.807Z,9.80
2018-05-16T22:26:32.813Z,9.90
2018-05-16T22:29:38.911Z,9.90
2018-05-16T22:32:51.091Z,9.90
2018-05-16T22:36:03.098Z,9.90
2018-05-16T22:39:15.022Z,9.90
2018-05-16T22:42:26.330Z,9.90
2018-05-16T22:49:18.865Z,9.90
2018-05-16T22:52:24.985Z,9.90
2018-05-16T22:55:31.746Z,9.90
2018-05-16T22:58:39.039Z,9.90
2018-05-16T23:01:45.289Z,9.90
2018-05-16T23:04:51.404Z,9.90
2018-05-16T23:07:57.496Z,9.90
2018-05-16T23:11:03.845Z,9.90
2018-05-16T23:14:09.995Z,9.90
2018-05-16T23:17:16.193Z,9.90
2018-05-16T23:20:22.461Z,9.90
2018-05-16T23:23:29.556Z,9.90
2018-05-16T23:26:36.178Z,9.90
2018-05-16T23:29:41.479Z,9.80
2018-05-16T23:32:47.474Z,9.90
2018-05-16T23:35:53.536Z,9.90
2018-05-16T23:39:00.113Z,9.90
2018-05-16T23:42:06.274Z,9.90
2018-05-16T23:45:13.023Z,9.90
2018-05-16T23:48:19.711Z,9.90
2018-05-16T23:51:25.058Z,9.80
2018-05-16T23:54:31.355Z,9.90
2018-05-16T23:57:37.390Z,9.80
